Flight Track Log - Related Links

Times and Time Zones

All times are in EST time to prevent confusion due to time zone crossing. See the DAL4888 flight status page for this flight to view local times or setup timezone preferences in your user account.

Time Position Orientation Groundspeed Altitude Reporting Facility
EST Latitude Longitude Course Direction KTS MPH feet Rate Location/Type
Wed 12:43:01 PM 33.7461 -79.0361 276° West 237 273 5,000  Level Jacksonville Center
Wed 12:44:01 PM 33.7511 -79.1258 274° West 252 290 7,800 2,950 Climbing Jacksonville Center
Wed 12:45:01 PM 33.7556 -79.2131 274° West 262 302 10,900 2,450 Climbing Jacksonville Center
Wed 12:46:01 PM 33.7522 -79.3081 268° West 272 313 12,700 1,600 Climbing Jacksonville Center
Wed 12:47:00 PM 33.6880 -79.6489 276° West  Level Estimated
Wed 12:47:01 PM 33.7486 -79.4108 268° West 290 334 14,100  Level Jacksonville Center
Wed 12:48:01 PM 33.7478 -79.5331 270° West 317 365 15,700 1,600 Climbing Jacksonville Center
Wed 12:49:01 PM 33.7425 -79.6483 267° West 340 391 17,300 1,600 Climbing Jacksonville Center
Wed 12:50:01 PM 33.7392 -79.7683 268° West 354 407 18,900 1,700 Climbing Jacksonville Center
Wed 12:51:01 PM 33.7358 -79.8808 268° West 354 407 20,700 1,700 Climbing Jacksonville Center
Wed 12:52:01 PM 33.7319 -79.9881 268° West 343 395 22,300 1,300 Climbing Jacksonville Center
Wed 12:53:01 PM 33.7261 -80.1008 266° West 343 395 23,300 800 Climbing Jacksonville Center
Wed 12:54:01 PM 33.7225 -80.2183 268° West 343 395 23,900 300 Climbing Jacksonville Center
Wed 12:55:01 PM 33.7186 -80.3383 268° West 355 409 23,900  Level Jacksonville Center
Wed 12:56:01 PM 33.7128 -80.4631 267° West 368 423 23,900 -50 Level Jacksonville Center
Wed 12:57:01 PM 33.7067 -80.5856 267° West 368 423 23,800  Descending Jacksonville Center
Wed 12:58:01 PM 33.7006 -80.7033 266° West 374 430 23,900 50 Climbing Jacksonville Center
Wed 12:59:01 PM 33.6944 -80.8281 267° West 380 437 23,900  Level Jacksonville Center
Wed 01:00:01 PM 33.6900 -80.9531 268° West 380 437 23,900  Level Jacksonville Center
Wed 01:01:01 PM 33.6836 -81.0781 267° West 385 443 23,900  Level Jacksonville Center
Wed 01:02:01 PM 33.6747 -81.2031 265° West 385 443 23,900  Level Jacksonville Center
Wed 01:03:01 PM 33.6703 -81.3303 268° West 385 443 23,900  Level Jacksonville Center
Wed 01:04:51 PM 33.6544 -81.5556 265° West 388 447 23,900  Level Atlanta Center
Wed 01:05:51 PM 33.6486 -81.6956 267° West 388 447 23,900  Level Atlanta Center
Wed 01:06:51 PM 33.6303 -81.8183 260° West 388 447 23,900  Level Atlanta Center
Wed 01:07:51 PM 33.5925 -81.9339 249° West 378 435 23,900  Level Atlanta Center
Wed 01:08:51 PM 33.5633 -82.0544 254° West 378 435 23,900  Level Atlanta Center
Wed 01:09:51 PM 33.5400 -82.1769 257° West 384 442 23,900  Level Atlanta Center
Wed 01:10:51 PM 33.5167 -82.2847 255° West 378 435 23,900  Level Atlanta Center
Wed 01:11:51 PM 33.4911 -82.4122 257° West 384 442 23,900  Level Atlanta Center
Wed 01:12:51 PM 33.4678 -82.5322 257° West 376 433 23,900  Level Atlanta Center
Wed 01:13:51 PM 33.4442 -82.6522 257° West 376 433 23,900  Level Atlanta Center
Wed 01:14:51 PM 33.4203 -82.7769 257° West 376 433 23,900 -500 Level Atlanta Center
Wed 01:15:51 PM 33.3967 -82.9117 258° West 376 433 22,900 -1,000 Descending Atlanta Center
Wed 01:16:51 PM 33.3725 -83.0264 256° West 371 427 21,900 -1,100 Descending Atlanta Center
Wed 01:17:51 PM 33.3464 -83.1461 255° West 371 427 20,700 -1,200 Descending Atlanta Center
Wed 01:18:51 PM 33.3264 -83.2606 258° West 360 414 19,500 -1,200 Descending Atlanta Center
Wed 01:19:51 PM 33.2997 -83.3753 254° West 360 414 18,300 -1,050 Descending Atlanta Center
Wed 01:20:51 PM 33.2794 -83.4847 258° West 353 406 17,400 -1,050 Descending Atlanta Center
Wed 01:21:51 PM 33.2569 -83.5942 256° West 342 394 16,200 -1,200 Descending Atlanta Center
Wed 01:22:51 PM 33.2344 -83.7036 256° West 336 387 15,000 -1,100 Descending Atlanta Center
Wed 01:23:51 PM 33.2200 -83.8053 260° West 341 392 14,000 -800 Descending Atlanta Center
Wed 01:24:51 PM 33.2764 -83.9072 304° West 340 391 13,400 -850 Descending Atlanta Center
Wed 01:25:51 PM 33.3414 -83.9964 311° West 355 409 12,300 -750 Descending Atlanta Center
Wed 01:26:51 PM 33.4019 -84.0861 309° West 355 409 11,900 -205 Descending Atlanta Center
Wed 01:27:48 PM 33.4667 -84.1833 309° West 345 397 11,900 51 Level Atlanta TRACON
Wed 01:28:48 PM 33.5167 -84.2500 312° West 269 310 12,000 -350 Climbing Atlanta TRACON
Wed 01:29:48 PM 33.5333 -84.3333 284° West 254 292 11,200 -1,450 Descending Atlanta TRACON
Wed 01:30:48 PM 33.5333 -84.4167 270° West 253 291 9,100 -2,050 Descending Atlanta TRACON
Wed 01:31:48 PM 33.5333 -84.5000 270° West 246 283 7,100 -2,000 Descending Atlanta TRACON
Wed 01:32:48 PM 33.5333 -84.5833 270° West 248 285 5,100 -1,950 Descending Atlanta TRACON
Wed 01:33:48 PM 33.5667 -84.6500 301° West 280 322 3,200 -1,050 Descending Atlanta TRACON
Wed 01:34:48 PM 33.6167 -84.6333 16° North 217 250 3,000 -100 Descending Atlanta TRACON
Wed 01:35:48 PM 33.6333 -84.5667 73° East 193 222 3,000 -476 Level Atlanta TRACON
Wed 01:36:54 PM 33.6333 -84.5000 90° East 161 185 2,000 -810 Descending Atlanta TRACON
Wed 01:37:54 PM 33.6333 -84.4500 90° East 148 170 1,300 -700 Descending Atlanta TRACON
Wed 01:39:00 PM 33.6367 -84.4279 103° East  Level Estimated
Wed 01:46:00 PM 33.6367 -84.4279 103° East  Level Estimated

Login

Don't have an account? Register now (free) for customized features, flight alerts, and more!